sensor_id;sensor_type;location;lat;lon;timestamp;pressure;altitude;pressure_sealevel;temperature;humidity
62895;BME280;49204;44.916;37.998;2023-02-20T00:01:20;100978.63;;;7.14;76.16
62895;BME280;49204;44.916;37.998;2023-02-20T00:03:48;100967.67;;;7.16;76.25
62895;BME280;49204;44.916;37.998;2023-02-20T00:06:16;100955.80;;;7.19;76.20
62895;BME280;49204;44.916;37.998;2023-02-20T00:08:44;100951.33;;;7.24;76.12
62895;BME280;49204;44.916;37.998;2023-02-20T00:11:12;100940.80;;;7.27;76.07
62895;BME280;49204;44.916;37.998;2023-02-20T00:13:46;100940.31;;;7.29;76.01
62895;BME280;49204;44.916;37.998;2023-02-20T00:16:14;100938.13;;;7.30;75.98
62895;BME280;49204;44.916;37.998;2023-02-20T00:18:42;100932.88;;;7.30;75.99
62895;BME280;49204;44.916;37.998;2023-02-20T00:21:10;100925.91;;;7.29;75.98
62895;BME280;49204;44.916;37.998;2023-02-20T00:23:38;100927.64;;;7.30;75.94
62895;BME280;49204;44.916;37.998;2023-02-20T00:26:09;100917.59;;;7.30;75.88
62895;BME280;49204;44.916;37.998;2023-02-20T00:28:39;100914.97;;;7.30;75.82
62895;BME280;49204;44.916;37.998;2023-02-20T00:31:10;100913.66;;;7.30;75.84
62895;BME280;49204;44.916;37.998;2023-02-20T00:33:36;100905.44;;;7.27;75.89
62895;BME280;49204;44.916;37.998;2023-02-20T00:36:04;100898.98;;;7.23;75.99
62895;BME280;49204;44.916;37.998;2023-02-20T00:38:32;100889.88;;;7.21;76.05
62895;BME280;49204;44.916;37.998;2023-02-20T00:41:01;100881.13;;;7.21;76.02
62895;BME280;49204;44.916;37.998;2023-02-20T00:43:28;100875.04;;;7.20;76.01
62895;BME280;49204;44.916;37.998;2023-02-20T00:45:57;100867.61;;;7.21;75.99
62895;BME280;49204;44.916;37.998;2023-02-20T00:48:24;100873.73;;;7.20;75.94
62895;BME280;49204;44.916;37.998;2023-02-20T00:50:54;100868.16;;;7.16;76.06
62895;BME280;49204;44.916;37.998;2023-02-20T00:53:21;100860.30;;;7.16;76.11
62895;BME280;49204;44.916;37.998;2023-02-20T00:55:49;100857.59;;;7.19;76.13
62895;BME280;49204;44.916;37.998;2023-02-20T00:58:17;100856.71;;;7.20;76.12
62895;BME280;49204;44.916;37.998;2023-02-20T01:00:45;100840.51;;;7.22;76.10
62895;BME280;49204;44.916;37.998;2023-02-20T01:03:12;100840.56;;;7.19;76.19
62895;BME280;49204;44.916;37.998;2023-02-20T01:05:40;100842.36;;;7.17;76.28
62895;BME280;49204;44.916;37.998;2023-02-20T01:08:08;100843.61;;;7.20;76.24
62895;BME280;49204;44.916;37.998;2023-02-20T01:10:35;100843.55;;;7.23;76.15
62895;BME280;49204;44.916;37.998;2023-02-20T01:13:03;100838.31;;;7.23;76.13
62895;BME280;49204;44.916;37.998;2023-02-20T01:15:31;100844.38;;;7.25;76.09
62895;BME280;49204;44.916;37.998;2023-02-20T01:17:59;100842.15;;;7.26;76.03
62895;BME280;49204;44.916;37.998;2023-02-20T01:20:26;100832.59;;;7.25;76.07
62895;BME280;49204;44.916;37.998;2023-02-20T01:22:54;100832.10;;;7.27;76.07
62895;BME280;49204;44.916;37.998;2023-02-20T01:25:22;100822.08;;;7.27;76.13
62895;BME280;49204;44.916;37.998;2023-02-20T01:27:49;100819.49;;;7.25;76.22
62895;BME280;49204;44.916;37.998;2023-02-20T01:30:17;100812.48;;;7.26;76.26
62895;BME280;49204;44.916;37.998;2023-02-20T01:32:45;100807.22;;;7.27;76.29
62895;BME280;49204;44.916;37.998;2023-02-20T01:35:14;100808.92;;;7.28;76.35
62895;BME280;49204;44.916;37.998;2023-02-20T01:37:42;100813.70;;;7.30;76.33
62895;BME280;49204;44.916;37.998;2023-02-20T01:40:18;100807.55;;;7.31;76.27
62895;BME280;49204;44.916;37.998;2023-02-20T01:42:45;100805.35;;;7.32;76.28
62895;BME280;49204;44.916;37.998;2023-02-20T01:45:16;100805.35;;;7.32;76.31
62895;BME280;49204;44.916;37.998;2023-02-20T01:47:45;100801.42;;;7.32;76.34
62895;BME280;49204;44.916;37.998;2023-02-20T01:50:14;100803.55;;;7.34;76.41
62895;BME280;49204;44.916;37.998;2023-02-20T01:52:42;100796.52;;;7.37;76.56
62895;BME280;49204;44.916;37.998;2023-02-20T01:55:17;100801.20;;;7.42;76.84
62895;BME280;49204;44.916;37.998;2023-02-20T01:57:47;100802.38;;;7.46;76.78
62895;BME280;49204;44.916;37.998;2023-02-20T02:00:14;100800.54;;;7.50;76.72
62895;BME280;49204;44.916;37.998;2023-02-20T02:02:49;100800.38;;;7.56;76.77
62895;BME280;49204;44.916;37.998;2023-02-20T02:05:17;100799.42;;;7.60;76.95
62895;BME280;49204;44.916;37.998;2023-02-20T02:07:45;100796.27;;;7.64;77.00
62895;BME280;49204;44.916;37.998;2023-02-20T02:10:13;100789.13;;;7.69;76.89
62895;BME280;49204;44.916;37.998;2023-02-20T02:12:44;100794.33;;;7.70;76.92
62895;BME280;49204;44.916;37.998;2023-02-20T02:15:15;100800.00;;;7.71;76.89
62895;BME280;49204;44.916;37.998;2023-02-20T02:33:44;100796.22;;;7.49;78.59
62895;BME280;49204;44.916;37.998;2023-02-20T02:38:45;100769.63;;;7.28;80.84
62895;BME280;49204;44.916;37.998;2023-02-20T02:41:21;100765.05;;;7.20;81.52
62895;BME280;49204;44.916;37.998;2023-02-20T02:43:50;100774.44;;;7.11;82.41
62895;BME280;49204;44.916;37.998;2023-02-20T02:46:24;100772.86;;;7.04;83.63
62895;BME280;49204;44.916;37.998;2023-02-20T02:48:51;100767.69;;;7.01;84.48
62895;BME280;49204;44.916;37.998;2023-02-20T02:51:20;100770.80;;;6.99;84.74
62895;BME280;49204;44.916;37.998;2023-02-20T02:54:07;100753.81;;;6.97;85.23
62895;BME280;49204;44.916;37.998;2023-02-20T02:56:36;100735.55;;;6.95;85.47
62895;BME280;49204;44.916;37.998;2023-02-20T02:59:04;100731.20;;;6.94;86.38
62895;BME280;49204;44.916;37.998;2023-02-20T03:01:34;100726.42;;;6.94;86.57
62895;BME280;49204;44.916;37.998;2023-02-20T03:04:02;100719.41;;;6.94;87.14
62895;BME280;49204;44.916;37.998;2023-02-20T03:06:33;100698.93;;;6.94;87.23
62895;BME280;49204;44.916;37.998;2023-02-20T03:09:08;100690.23;;;6.93;87.74
62895;BME280;49204;44.916;37.998;2023-02-20T03:11:36;100670.59;;;6.93;87.84
62895;BME280;49204;44.916;37.998;2023-02-20T03:16:55;100674.03;;;6.95;88.04
62895;BME280;49204;44.916;37.998;2023-02-20T03:19:28;100669.22;;;6.95;87.82
62895;BME280;49204;44.916;37.998;2023-02-20T03:21:55;100660.41;;;6.99;87.79
62895;BME280;49204;44.916;37.998;2023-02-20T03:24:24;100661.63;;;7.02;87.70
62895;BME280;49204;44.916;37.998;2023-02-20T03:26:54;100658.48;;;7.06;87.45
62895;BME280;49204;44.916;37.998;2023-02-20T03:29:25;100663.65;;;7.09;87.02
62895;BME280;49204;44.916;37.998;2023-02-20T03:31:55;100669.24;;;7.11;86.67
62895;BME280;49204;44.916;37.998;2023-02-20T03:34:41;100676.08;;;7.17;86.50
62895;BME280;49204;44.916;37.998;2023-02-20T03:37:28;100689.10;;;7.20;86.33
62895;BME280;49204;44.916;37.998;2023-02-20T03:40:16;100701.70;;;7.22;86.17
62895;BME280;49204;44.916;37.998;2023-02-20T03:43:04;100702.52;;;7.24;86.08
62895;BME280;49204;44.916;37.998;2023-02-20T03:45:50;100703.83;;;7.24;86.01
62895;BME280;49204;44.916;37.998;2023-02-20T03:48:25;100701.67;;;7.24;85.91
62895;BME280;49204;44.916;37.998;2023-02-20T03:50:48;100705.17;;;7.23;85.73
62895;BME280;49204;44.916;37.998;2023-02-20T03:53:16;100709.56;;;7.22;85.61
62895;BME280;49204;44.916;37.998;2023-02-20T03:55:45;100701.73;;;7.21;85.58
62895;BME280;49204;44.916;37.998;2023-02-20T03:58:15;100691.30;;;7.19;85.56
62895;BME280;49204;44.916;37.998;2023-02-20T04:00:44;100683.90;;;7.19;85.56
62895;BME280;49204;44.916;37.998;2023-02-20T04:03:14;100689.98;;;7.19;85.51
62895;BME280;49204;44.916;37.998;2023-02-20T04:05:45;100691.75;;;7.19;85.46
62895;BME280;49204;44.916;37.998;2023-02-20T04:08:23;100695.69;;;7.19;85.42
62895;BME280;49204;44.916;37.998;2023-02-20T04:10:49;100700.03;;;7.20;85.36
62895;BME280;49204;44.916;37.998;2023-02-20T04:13:16;100695.58;;;7.23;85.19
62895;BME280;49204;44.916;37.998;2023-02-20T04:15:46;100693.36;;;7.24;85.15
62895;BME280;49204;44.916;37.998;2023-02-20T04:18:16;100687.27;;;7.24;85.14
62895;BME280;49204;44.916;37.998;2023-02-20T04:20:45;100689.88;;;7.24;85.08
62895;BME280;49204;44.916;37.998;2023-02-20T04:23:17;100685.11;;;7.23;84.96
62895;BME280;49204;44.916;37.998;2023-02-20T04:26:09;100677.25;;;7.23;84.84
62895;BME280;49204;44.916;37.998;2023-02-20T04:28:15;100677.64;;;7.24;84.69
62895;BME280;49204;44.916;37.998;2023-02-20T04:30:45;100675.94;;;7.23;84.63
62895;BME280;49204;44.916;37.998;2023-02-20T04:33:13;100673.71;;;7.24;84.63
62895;BME280;49204;44.916;37.998;2023-02-20T04:35:42;100669.33;;;7.25;84.63
62895;BME280;49204;44.916;37.998;2023-02-20T04:38:10;100666.28;;;7.25;84.54
62895;BME280;49204;44.916;37.998;2023-02-20T04:40:38;100665.86;;;7.24;84.18
62895;BME280;49204;44.916;37.998;2023-02-20T04:43:07;100654.46;;;7.27;84.36
62895;BME280;49204;44.916;37.998;2023-02-20T04:45:35;100648.30;;;7.28;84.12
62895;BME280;49204;44.916;37.998;2023-02-20T04:48:04;100629.94;;;7.29;84.01
62895;BME280;49204;44.916;37.998;2023-02-20T04:50:32;100622.57;;;7.27;84.27
62895;BME280;49204;44.916;37.998;2023-02-20T04:53:01;100618.64;;;7.27;84.47
62895;BME280;49204;44.916;37.998;2023-02-20T04:55:29;100629.51;;;7.28;84.55
62895;BME280;49204;44.916;37.998;2023-02-20T04:57:58;100640.41;;;7.29;83.77
62895;BME280;49204;44.916;37.998;2023-02-20T05:00:27;100643.38;;;7.32;83.94
62895;BME280;49204;44.916;37.998;2023-02-20T05:02:56;100631.56;;;7.33;83.98
62895;BME280;49204;44.916;37.998;2023-02-20T05:05:25;100620.20;;;7.34;84.17
62895;BME280;49204;44.916;37.998;2023-02-20T05:07:59;100608.48;;;7.31;84.00
62895;BME280;49204;44.916;37.998;2023-02-20T05:10:22;100610.78;;;7.27;85.16
62895;BME280;49204;44.916;37.998;2023-02-20T05:12:51;100597.87;;;7.21;86.04
62895;BME280;49204;44.916;37.998;2023-02-20T05:15:20;100594.52;;;7.16;87.09
62895;BME280;49204;44.916;37.998;2023-02-20T05:17:48;100596.81;;;7.12;88.01
62895;BME280;49204;44.916;37.998;2023-02-20T05:20:16;100603.89;;;7.08;88.46
62895;BME280;49204;44.916;37.998;2023-02-20T05:22:45;100587.30;;;7.08;88.83
62895;BME280;49204;44.916;37.998;2023-02-20T05:25:13;100575.41;;;7.12;89.26
62895;BME280;49204;44.916;37.998;2023-02-20T05:27:41;100580.95;;;7.17;89.50
62895;BME280;49204;44.916;37.998;2023-02-20T05:30:09;100571.76;;;7.18;89.43
62895;BME280;49204;44.916;37.998;2023-02-20T05:32:37;100559.05;;;7.19;90.02
62895;BME280;49204;44.916;37.998;2023-02-20T05:35:05;100548.11;;;7.21;90.43
62895;BME280;49204;44.916;37.998;2023-02-20T05:37:33;100571.58;;;7.24;90.61
62895;BME280;49204;44.916;37.998;2023-02-20T05:40:01;100551.89;;;7.26;90.85
62895;BME280;49204;44.916;37.998;2023-02-20T05:42:29;100539.15;;;7.28;91.29
62895;BME280;49204;44.916;37.998;2023-02-20T05:44:56;100547.39;;;7.31;91.45
62895;BME280;49204;44.916;37.998;2023-02-20T05:47:24;100549.16;;;7.30;91.66
62895;BME280;49204;44.916;37.998;2023-02-20T05:49:52;100542.16;;;7.31;91.65
62895;BME280;49204;44.916;37.998;2023-02-20T05:52:19;100540.70;;;7.35;91.91
62895;BME280;49204;44.916;37.998;2023-02-20T05:54:47;100538.42;;;7.40;91.85
62895;BME280;49204;44.916;37.998;2023-02-20T05:57:15;100531.77;;;7.43;92.25
62895;BME280;49204;44.916;37.998;2023-02-20T05:59:43;100529.87;;;7.48;92.21
62895;BME280;49204;44.916;37.998;2023-02-20T06:02:10;100517.45;;;7.54;92.62
62895;BME280;49204;44.916;37.998;2023-02-20T06:04:38;100526.94;;;7.59;92.91
62895;BME280;49204;44.916;37.998;2023-02-20T06:07:07;100522.50;;;7.61;92.98
62895;BME280;49204;44.916;37.998;2023-02-20T06:09:36;100522.92;;;7.62;92.93
62895;BME280;49204;44.916;37.998;2023-02-20T06:12:04;100518.84;;;7.66;92.82
62895;BME280;49204;44.916;37.998;2023-02-20T06:14:31;100507.46;;;7.67;92.60
62895;BME280;49204;44.916;37.998;2023-02-20T06:16:59;100493.35;;;7.71;92.43
62895;BME280;49204;44.916;37.998;2023-02-20T06:19:27;100491.45;;;7.77;92.35
62895;BME280;49204;44.916;37.998;2023-02-20T06:21:55;100487.41;;;7.80;92.27
62895;BME280;49204;44.916;37.998;2023-02-20T06:24:25;100482.53;;;7.82;92.20
62895;BME280;49204;44.916;37.998;2023-02-20T06:26:53;100479.75;;;7.87;92.08
62895;BME280;49204;44.916;37.998;2023-02-20T06:29:20;100468.67;;;7.92;92.02
62895;BME280;49204;44.916;37.998;2023-02-20T06:31:48;100454.55;;;7.96;91.88
62895;BME280;49204;44.916;37.998;2023-02-20T06:34:16;100449.51;;;8.03;91.69
62895;BME280;49204;44.916;37.998;2023-02-20T06:36:44;100444.05;;;8.09;91.58
62895;BME280;49204;44.916;37.998;2023-02-20T06:39:12;100434.27;;;8.15;91.49
62895;BME280;49204;44.916;37.998;2023-02-20T06:41:40;100432.36;;;8.20;91.31
62895;BME280;49204;44.916;37.998;2023-02-20T06:44:08;100413.39;;;8.25;91.12
62895;BME280;49204;44.916;37.998;2023-02-20T06:46:37;100413.21;;;8.29;90.91
62895;BME280;49204;44.916;37.998;2023-02-20T06:49:05;100398.12;;;8.36;90.77
62895;BME280;49204;44.916;37.998;2023-02-20T06:51:32;100399.24;;;8.42;90.65
62895;BME280;49204;44.916;37.998;2023-02-20T06:54:00;100393.84;;;8.47;90.51
62895;BME280;49204;44.916;37.998;2023-02-20T06:56:29;100387.56;;;8.51;90.48
62895;BME280;49204;44.916;37.998;2023-02-20T06:58:58;100402.23;;;8.57;90.37
62895;BME280;49204;44.916;37.998;2023-02-20T07:01:27;100395.06;;;8.62;90.21
62895;BME280;49204;44.916;37.998;2023-02-20T07:03:56;100392.61;;;8.69;90.03
62895;BME280;49204;44.916;37.998;2023-02-20T07:06:25;100395.90;;;8.74;89.32
62895;BME280;49204;44.916;37.998;2023-02-20T07:08:53;100387.81;;;8.80;89.23
62895;BME280;49204;44.916;37.998;2023-02-20T07:11:21;100386.27;;;8.86;89.20
62895;BME280;49204;44.916;37.998;2023-02-20T07:13:49;100378.66;;;8.91;88.99
62895;BME280;49204;44.916;37.998;2023-02-20T07:16:17;100360.70;;;8.92;88.76
62895;BME280;49204;44.916;37.998;2023-02-20T07:18:45;100360.59;;;8.95;88.46
62895;BME280;49204;44.916;37.998;2023-02-20T07:21:13;100337.61;;;9.00;88.62
62895;BME280;49204;44.916;37.998;2023-02-20T07:23:47;100345.65;;;9.07;88.48
62895;BME280;49204;44.916;37.998;2023-02-20T07:26:18;100339.66;;;9.15;88.42
62895;BME280;49204;44.916;37.998;2023-02-20T07:28:46;100342.96;;;9.20;88.07
62895;BME280;49204;44.916;37.998;2023-02-20T07:31:13;100346.53;;;9.30;88.23
62895;BME280;49204;44.916;37.998;2023-02-20T07:33:41;100331.72;;;9.39;87.81
62895;BME280;49204;44.916;37.998;2023-02-20T07:36:10;100336.24;;;9.45;87.55
62895;BME280;49204;44.916;37.998;2023-02-20T07:38:38;100338.96;;;9.54;87.70
62895;BME280;49204;44.916;37.998;2023-02-20T07:41:06;100343.69;;;9.56;87.49
62895;BME280;49204;44.916;37.998;2023-02-20T07:43:34;100333.13;;;9.58;87.54
62895;BME280;49204;44.916;37.998;2023-02-20T07:46:02;100352.78;;;9.59;87.44
62895;BME280;49204;44.916;37.998;2023-02-20T07:48:30;100351.84;;;9.60;87.00
62895;BME280;49204;44.916;37.998;2023-02-20T07:50:59;100360.28;;;9.69;87.34
62895;BME280;49204;44.916;37.998;2023-02-20T07:53:27;100366.06;;;9.77;87.50
62895;BME280;49204;44.916;37.998;2023-02-20T07:55:54;100374.48;;;9.75;87.39
62895;BME280;49204;44.916;37.998;2023-02-20T07:58:22;100375.91;;;9.72;87.55
62895;BME280;49204;44.916;37.998;2023-02-20T08:00:51;100375.33;;;9.65;87.72
62895;BME280;49204;44.916;37.998;2023-02-20T08:03:20;100372.87;;;9.60;87.77
62895;BME280;49204;44.916;37.998;2023-02-20T08:05:47;100380.17;;;9.54;87.79
62895;BME280;49204;44.916;37.998;2023-02-20T08:08:15;100378.70;;;9.46;87.96
62895;BME280;49204;44.916;37.998;2023-02-20T08:10:43;100382.34;;;9.42;88.16
62895;BME280;49204;44.916;37.998;2023-02-20T08:13:11;100392.27;;;9.36;88.32
62895;BME280;49204;44.916;37.998;2023-02-20T08:15:53;100403.92;;;9.28;88.27
62895;BME280;49204;44.916;37.998;2023-02-20T08:18:26;100405.55;;;9.21;88.30
62895;BME280;49204;44.916;37.998;2023-02-20T08:20:53;100410.69;;;9.12;88.33
62895;BME280;49204;44.916;37.998;2023-02-20T08:23:22;100421.95;;;9.04;88.40
62895;BME280;49204;44.916;37.998;2023-02-20T08:25:51;100427.03;;;8.97;88.40
62895;BME280;49204;44.916;37.998;2023-02-20T08:28:19;100451.34;;;8.90;88.44
62895;BME280;49204;44.916;37.998;2023-02-20T08:30:47;100485.47;;;8.78;88.24
62895;BME280;49204;44.916;37.998;2023-02-20T08:33:14;100501.09;;;8.29;85.69
62895;BME280;49204;44.916;37.998;2023-02-20T08:35:42;100505.77;;;7.65;84.33
62895;BME280;49204;44.916;37.998;2023-02-20T08:40:52;100540.41;;;6.66;84.18
62895;BME280;49204;44.916;37.998;2023-02-20T08:43:19;100541.61;;;6.36;84.31
62895;BME280;49204;44.916;37.998;2023-02-20T08:45:47;100557.57;;;6.07;84.82
62895;BME280;49204;44.916;37.998;2023-02-20T08:48:15;100561.00;;;5.88;84.93
62895;BME280;49204;44.916;37.998;2023-02-20T08:50:43;100557.03;;;5.72;84.93
62895;BME280;49204;44.916;37.998;2023-02-20T08:53:13;100563.39;;;5.58;85.11
62895;BME280;49204;44.916;37.998;2023-02-20T08:55:41;100564.17;;;5.43;85.07
62895;BME280;49204;44.916;37.998;2023-02-20T08:58:11;100562.55;;;5.37;85.37
62895;BME280;49204;44.916;37.998;2023-02-20T09:00:39;100563.06;;;5.33;85.54
62895;BME280;49204;44.916;37.998;2023-02-20T09:03:06;100566.20;;;5.28;85.72
62895;BME280;49204;44.916;37.998;2023-02-20T09:05:34;100557.89;;;5.30;85.92
62895;BME280;49204;44.916;37.998;2023-02-20T09:08:02;100563.54;;;5.31;86.03
62895;BME280;49204;44.916;37.998;2023-02-20T09:10:30;100561.33;;;5.32;85.85
62895;BME280;49204;44.916;37.998;2023-02-20T09:12:58;100575.31;;;5.30;85.82
62895;BME280;49204;44.916;37.998;2023-02-20T09:15:26;100594.57;;;5.24;85.91
62895;BME280;49204;44.916;37.998;2023-02-20T09:17:54;100586.66;;;5.27;85.96
62895;BME280;49204;44.916;37.998;2023-02-20T09:20:22;100591.95;;;5.24;85.65
62895;BME280;49204;44.916;37.998;2023-02-20T09:22:50;100613.70;;;5.25;86.08
62895;BME280;49204;44.916;37.998;2023-02-20T09:25:18;100613.72;;;5.23;86.18
62895;BME280;49204;44.916;37.998;2023-02-20T09:27:45;100629.84;;;5.22;86.14
62895;BME280;49204;44.916;37.998;2023-02-20T09:30:14;100631.71;;;5.14;85.87
62895;BME280;49204;44.916;37.998;2023-02-20T09:32:44;100656.56;;;5.13;86.01
62895;BME280;49204;44.916;37.998;2023-02-20T09:35:20;100654.95;;;5.06;85.71
62895;BME280;49204;44.916;37.998;2023-02-20T09:37:48;100661.52;;;5.02;85.43
62895;BME280;49204;44.916;37.998;2023-02-20T09:40:16;100657.66;;;4.98;85.80
62895;BME280;49204;44.916;37.998;2023-02-20T09:45:15;100681.43;;;4.81;85.30
62895;BME280;49204;44.916;37.998;2023-02-20T09:52:57;100687.87;;;4.58;85.27
62895;BME280;49204;44.916;37.998;2023-02-20T09:55:23;100699.72;;;4.52;85.56
62895;BME280;49204;44.916;37.998;2023-02-20T09:57:52;100701.02;;;4.52;85.69
62895;BME280;49204;44.916;37.998;2023-02-20T10:00:25;100705.80;;;4.51;84.57
62895;BME280;49204;44.916;37.998;2023-02-20T10:02:52;100702.98;;;4.35;85.18
62895;BME280;49204;44.916;37.998;2023-02-20T10:05:24;100703.45;;;4.33;85.28
62895;BME280;49204;44.916;37.998;2023-02-20T10:07:52;100702.28;;;4.23;85.57
62895;BME280;49204;44.916;37.998;2023-02-20T10:10:30;100701.34;;;4.28;85.70
62895;BME280;49204;44.916;37.998;2023-02-20T10:15:57;100716.16;;;4.24;85.89
62895;BME280;49204;44.916;37.998;2023-02-20T10:19:13;100707.84;;;4.29;85.83
62895;BME280;49204;44.916;37.998;2023-02-20T10:20:56;100715.19;;;4.33;85.67
62895;BME280;49204;44.916;37.998;2023-02-20T10:25:52;100721.48;;;4.48;85.83
62895;BME280;49204;44.916;37.998;2023-02-20T10:28:20;100726.19;;;4.53;85.92
62895;BME280;49204;44.916;37.998;2023-02-20T10:33:38;100725.22;;;4.60;85.91
62895;BME280;49204;44.916;37.998;2023-02-20T10:36:09;100730.75;;;4.69;85.87
62895;BME280;49204;44.916;37.998;2023-02-20T10:38:46;100732.84;;;4.76;85.85
62895;BME280;49204;44.916;37.998;2023-02-20T10:41:32;100753.33;;;4.70;85.83
62895;BME280;49204;44.916;37.998;2023-02-20T10:45:02;100754.71;;;4.66;85.76
62895;BME280;49204;44.916;37.998;2023-02-20T10:46:49;100762.94;;;4.67;85.96
62895;BME280;49204;44.916;37.998;2023-02-20T10:49:16;100774.38;;;4.59;85.34
62895;BME280;49204;44.916;37.998;2023-02-20T10:51:44;100778.70;;;4.59;85.36
62895;BME280;49204;44.916;37.998;2023-02-20T10:54:20;100780.89;;;4.59;85.44
62895;BME280;49204;44.916;37.998;2023-02-20T10:59:35;100785.19;;;4.62;85.87
62895;BME280;49204;44.916;37.998;2023-02-20T11:02:02;100786.95;;;4.61;85.45
62895;BME280;49204;44.916;37.998;2023-02-20T11:04:32;100783.90;;;4.60;85.33
62895;BME280;49204;44.916;37.998;2023-02-20T11:07:01;100806.04;;;4.63;85.57
62895;BME280;49204;44.916;37.998;2023-02-20T11:09:29;100787.44;;;4.56;85.33
62895;BME280;49204;44.916;37.998;2023-02-20T11:11:57;100792.16;;;4.61;85.38
62895;BME280;49204;44.916;37.998;2023-02-20T11:14:27;100794.14;;;4.76;85.41
62895;BME280;49204;44.916;37.998;2023-02-20T11:17:11;100793.01;;;4.92;85.37
62895;BME280;49204;44.916;37.998;2023-02-20T11:19:47;100803.29;;;5.03;85.35
62895;BME280;49204;44.916;37.998;2023-02-20T11:22:15;100805.83;;;5.09;85.25
62895;BME280;49204;44.916;37.998;2023-02-20T11:24:44;100801.91;;;5.09;84.76
62895;BME280;49204;44.916;37.998;2023-02-20T11:27:13;100817.66;;;5.01;84.42
62895;BME280;49204;44.916;37.998;2023-02-20T11:29:48;100829.41;;;5.01;84.62
62895;BME280;49204;44.916;37.998;2023-02-20T11:32:38;100838.03;;;5.07;84.61
62895;BME280;49204;44.916;37.998;2023-02-20T11:38:14;100850.48;;;4.89;83.37
62895;BME280;49204;44.916;37.998;2023-02-20T11:42:50;100857.23;;;4.72;83.46
62895;BME280;49204;44.916;37.998;2023-02-20T11:45:24;100862.84;;;4.75;83.80
62895;BME280;49204;44.916;37.998;2023-02-20T11:50:40;100858.94;;;4.73;83.71
62895;BME280;49204;44.916;37.998;2023-02-20T11:53:20;100866.75;;;4.75;83.63
62895;BME280;49204;44.916;37.998;2023-02-20T11:55:48;100873.15;;;4.84;83.50
62895;BME280;49204;44.916;37.998;2023-02-20T11:58:23;100877.87;;;4.89;83.44
62895;BME280;49204;44.916;37.998;2023-02-20T12:00:52;100883.03;;;4.92;82.94
62895;BME280;49204;44.916;37.998;2023-02-20T12:03:21;100882.91;;;5.01;83.13
62895;BME280;49204;44.916;37.998;2023-02-20T12:05:49;100875.81;;;5.13;83.23
62895;BME280;49204;44.916;37.998;2023-02-20T12:09:03;100876.06;;;5.25;82.88
62895;BME280;49204;44.916;37.998;2023-02-20T12:10:47;100865.98;;;5.29;82.66
62895;BME280;49204;44.916;37.998;2023-02-20T12:13:16;100875.61;;;5.25;81.64
62895;BME280;49204;44.916;37.998;2023-02-20T12:15:46;100881.41;;;5.17;82.43
62895;BME280;49204;44.916;37.998;2023-02-20T12:18:17;100878.69;;;5.23;82.75
62895;BME280;49204;44.916;37.998;2023-02-20T12:20:47;100880.33;;;5.30;82.38
62895;BME280;49204;44.916;37.998;2023-02-20T12:26:11;100893.77;;;5.33;81.45
62895;BME280;49204;44.916;37.998;2023-02-20T12:28:57;100885.84;;;5.40;81.33
62895;BME280;49204;44.916;37.998;2023-02-20T12:31:29;100893.59;;;5.45;81.01
62895;BME280;49204;44.916;37.998;2023-02-20T12:36:44;100904.61;;;5.64;79.81
62895;BME280;49204;44.916;37.998;2023-02-20T12:44:32;100926.47;;;6.14;77.96
62895;BME280;49204;44.916;37.998;2023-02-20T12:47:15;100927.61;;;6.24;78.02
62895;BME280;49204;44.916;37.998;2023-02-20T12:55:14;100948.14;;;6.19;77.00
62895;BME280;49204;44.916;37.998;2023-02-20T13:05:50;100964.67;;;5.94;75.26
62895;BME280;49204;44.916;37.998;2023-02-20T13:11:00;100964.48;;;5.49;77.13
62895;BME280;49204;44.916;37.998;2023-02-20T13:13:25;100970.30;;;5.38;76.67
62895;BME280;49204;44.916;37.998;2023-02-20T13:16:03;100967.20;;;5.41;76.79
62895;BME280;49204;44.916;37.998;2023-02-20T13:18:39;100977.95;;;5.52;77.02
62895;BME280;49204;44.916;37.998;2023-02-20T13:21:12;100977.95;;;5.52;76.30
62895;BME280;49204;44.916;37.998;2023-02-20T13:23:37;100987.59;;;5.47;76.60
62895;BME280;49204;44.916;37.998;2023-02-20T13:28:51;100979.17;;;5.26;76.63
62895;BME280;49204;44.916;37.998;2023-02-20T13:36:42;100994.26;;;5.02;76.23
62895;BME280;49204;44.916;37.998;2023-02-20T13:47:03;101015.37;;;4.81;76.02
62895;BME280;49204;44.916;37.998;2023-02-20T13:55:37;101005.52;;;4.67;76.50
62895;BME280;49204;44.916;37.998;2023-02-20T13:58:09;101017.34;;;4.57;76.23
62895;BME280;49204;44.916;37.998;2023-02-20T14:00:43;101025.25;;;4.48;76.46
62895;BME280;49204;44.916;37.998;2023-02-20T14:03:21;101027.48;;;4.42;76.57
62895;BME280;49204;44.916;37.998;2023-02-20T14:05:44;101024.95;;;4.33;76.75
62895;BME280;49204;44.916;37.998;2023-02-20T14:08:16;101021.17;;;4.21;75.94
62895;BME280;49204;44.916;37.998;2023-02-20T14:10:44;101016.95;;;4.04;76.03
62895;BME280;49204;44.916;37.998;2023-02-20T14:13:17;101012.67;;;3.96;76.38
62895;BME280;49204;44.916;37.998;2023-02-20T14:18:23;101028.44;;;3.74;76.17
62895;BME280;49204;44.916;37.998;2023-02-20T14:20:50;101026.73;;;3.67;75.13
62895;BME280;49204;44.916;37.998;2023-02-20T14:23:25;101021.13;;;3.61;76.09
62895;BME280;49204;44.916;37.998;2023-02-20T14:28:23;101045.96;;;3.46;76.24
62895;BME280;49204;44.916;37.998;2023-02-20T14:33:32;101050.36;;;3.32;76.52
62895;BME280;49204;44.916;37.998;2023-02-20T14:38:49;101054.77;;;3.13;75.73
62895;BME280;49204;44.916;37.998;2023-02-20T14:41:19;101055.22;;;3.07;76.58
62895;BME280;49204;44.916;37.998;2023-02-20T14:44:00;101070.41;;;3.05;76.69
62895;BME280;49204;44.916;37.998;2023-02-20T14:46:30;101066.54;;;2.97;75.79
62895;BME280;49204;44.916;37.998;2023-02-20T14:49:08;101064.37;;;2.90;76.55
62895;BME280;49204;44.916;37.998;2023-02-20T14:51:31;101083.02;;;2.85;76.68
62895;BME280;49204;44.916;37.998;2023-02-20T14:54:23;101080.85;;;2.80;76.84